createdAt,value
2022-11-15T00:02:01.203Z,73.90
2022-11-15T00:04:47.556Z,73.50
2022-11-15T00:07:54.504Z,72.90
2022-11-15T00:10:41.672Z,72.40
2022-11-15T00:13:28.174Z,73.00
2022-11-15T00:16:14.517Z,72.40
2022-11-15T00:19:00.971Z,72.50
2022-11-15T00:21:47.286Z,72.70
2022-11-15T00:24:33.745Z,73.20
2022-11-15T00:27:21.491Z,73.30
2022-11-15T00:30:08.619Z,73.30
2022-11-15T00:32:54.892Z,73.20
2022-11-15T00:35:41.334Z,73.30
2022-11-15T00:38:27.528Z,73.50
2022-11-15T00:41:13.925Z,74.00
2022-11-15T00:44:01.521Z,73.70
2022-11-15T00:46:47.921Z,73.50
2022-11-15T00:49:34.181Z,73.50
2022-11-15T00:52:20.472Z,73.60
2022-11-15T00:55:07.249Z,74.10
2022-11-15T00:57:53.786Z,74.10
2022-11-15T01:00:41.576Z,73.70
2022-11-15T01:03:28.172Z,73.20
2022-11-15T01:06:15.347Z,72.70
2022-11-15T01:09:01.612Z,72.40
2022-11-15T01:11:48.045Z,72.40
2022-11-15T01:14:34.574Z,72.50
2022-11-15T01:17:22.230Z,72.80
2022-11-15T01:20:09.732Z,73.00
2022-11-15T01:22:56.430Z,74.30
2022-11-15T01:25:42.696Z,73.40
2022-11-15T01:28:32.444Z,73.30
2022-11-15T01:31:20.195Z,73.50
2022-11-15T01:34:08.283Z,73.50
2022-11-15T01:36:54.834Z,74.00
2022-11-15T01:39:41.565Z,73.80
2022-11-15T01:42:27.993Z,73.70
2022-11-15T01:45:15.601Z,73.60
2022-11-15T01:48:02.217Z,74.50
2022-11-15T01:50:49.964Z,74.00
2022-11-15T01:53:36.433Z,74.30
2022-11-15T01:56:24.780Z,73.90
2022-11-15T01:59:11.112Z,73.50
2022-11-15T02:01:57.560Z,72.80
2022-11-15T02:04:44.643Z,72.50
2022-11-15T02:07:32.997Z,72.40
2022-11-15T02:10:21.829Z,72.50
2022-11-15T02:13:07.989Z,72.70
2022-11-15T02:16:02.734Z,72.90
2022-11-15T02:18:51.335Z,73.50
2022-11-15T02:21:38.966Z,73.40
2022-11-15T02:24:44.169Z,73.30
2022-11-15T02:27:44.893Z,73.40
2022-11-15T02:30:36.937Z,73.50
2022-11-15T02:33:29.548Z,74.10
2022-11-15T02:36:17.925Z,73.80
2022-11-15T02:39:07.948Z,73.50
2022-11-15T02:41:55.610Z,73.20
2022-11-15T02:44:43.723Z,73.20
2022-11-15T02:47:32.043Z,73.60
2022-11-15T02:50:19.283Z,73.60
2022-11-15T02:53:05.768Z,73.40
2022-11-15T02:55:52.450Z,73.30
2022-11-15T02:59:03.021Z,73.40
2022-11-15T03:01:57.320Z,73.70
2022-11-15T03:04:46.346Z,74.00
2022-11-15T03:07:35.679Z,73.80
2022-11-15T03:10:24.947Z,73.70
2022-11-15T03:13:15.913Z,73.60
2022-11-15T03:16:04.929Z,73.70
2022-11-15T03:18:54.059Z,74.20
2022-11-15T03:21:41.915Z,74.10
2022-11-15T03:24:28.327Z,73.80
2022-11-15T03:27:15.879Z,73.20
2022-11-15T03:30:06.874Z,73.00
2022-11-15T03:32:55.841Z,73.30
2022-11-15T03:35:44.344Z,73.40
2022-11-15T03:38:32.775Z,73.20
2022-11-15T03:41:22.104Z,73.10
2022-11-15T03:44:12.430Z,73.30
2022-11-15T03:47:00.567Z,73.60
2022-11-15T03:49:48.558Z,73.80
2022-11-15T03:52:35.606Z,73.60
2022-11-15T03:55:23.551Z,73.50
2022-11-15T03:58:10.020Z,73.60
2022-11-15T04:00:56.355Z,73.70
2022-11-15T04:03:42.620Z,74.10
2022-11-15T04:06:29.004Z,73.90
2022-11-15T04:09:15.348Z,73.50
2022-11-15T04:12:03.047Z,73.20
2022-11-15T04:15:07.954Z,73.10
2022-11-15T04:17:55.366Z,73.50
2022-11-15T04:20:58.995Z,73.50
2022-11-15T04:24:02.844Z,73.30
2022-11-15T04:26:49.386Z,73.40
2022-11-15T04:29:36.994Z,73.50
2022-11-15T04:32:23.264Z,73.80
2022-11-15T04:35:10.100Z,74.10
2022-11-15T04:37:56.597Z,73.90
2022-11-15T04:40:42.788Z,73.70
2022-11-15T04:43:29.426Z,73.70
2022-11-15T04:46:17.364Z,73.80
2022-11-15T04:49:03.571Z,74.30
2022-11-15T04:51:49.957Z,74.10
2022-11-15T04:54:36.336Z,73.70
2022-11-15T04:57:22.519Z,73.10
2022-11-15T05:00:10.165Z,72.70
2022-11-15T05:03:15.065Z,72.50
2022-11-15T05:06:01.624Z,72.60
2022-11-15T05:08:47.961Z,72.70
2022-11-15T05:11:34.237Z,73.00
2022-11-15T05:14:20.464Z,73.50
2022-11-15T05:17:06.797Z,73.70
2022-11-15T05:19:54.804Z,73.60
2022-11-15T05:22:41.442Z,73.40
2022-11-15T05:25:27.908Z,73.50
2022-11-15T05:28:14.766Z,73.70
2022-11-15T05:31:02.908Z,74.10
2022-11-15T05:33:49.447Z,73.90
2022-11-15T05:36:38.584Z,73.80
2022-11-15T05:39:26.875Z,73.80
2022-11-15T05:42:14.385Z,73.80
2022-11-15T05:45:00.850Z,74.20
2022-11-15T05:47:47.179Z,74.20
2022-11-15T05:50:33.528Z,73.90
2022-11-15T05:53:21.623Z,73.60
2022-11-15T05:56:08.621Z,72.90
2022-11-15T05:58:59.498Z,72.60
2022-11-15T06:01:46.708Z,72.70
2022-11-15T06:04:33.389Z,72.70
2022-11-15T06:07:19.865Z,72.90
2022-11-15T06:10:08.976Z,73.10
2022-11-15T06:12:59.813Z,73.70
2022-11-15T06:15:46.284Z,73.60
2022-11-15T06:18:34.355Z,73.40
2022-11-15T06:21:21.003Z,73.60
2022-11-15T06:24:07.858Z,73.70
2022-11-15T06:26:55.885Z,74.20
2022-11-15T06:29:42.231Z,74.00
2022-11-15T06:32:28.494Z,73.80
2022-11-15T06:35:15.171Z,73.80
2022-11-15T06:38:04.969Z,73.90
2022-11-15T06:40:51.557Z,74.30
2022-11-15T06:43:39.744Z,74.30
2022-11-15T06:46:26.465Z,73.90
2022-11-15T06:49:12.820Z,73.30
2022-11-15T06:51:58.968Z,72.80
2022-11-15T06:54:45.213Z,72.60
2022-11-15T06:57:33.161Z,72.60
2022-11-15T07:00:21.777Z,72.70
2022-11-15T07:03:08.367Z,73.00
2022-11-15T07:05:55.673Z,73.40
2022-11-15T07:08:42.600Z,73.80
2022-11-15T07:11:28.886Z,73.60
2022-11-15T07:14:15.126Z,73.50
2022-11-15T07:17:04.875Z,73.60
2022-11-15T07:19:51.569Z,73.80
2022-11-15T07:22:37.921Z,74.30
2022-11-15T07:25:24.309Z,74.10
2022-11-15T07:28:10.985Z,74.00
2022-11-15T07:30:58.523Z,74.00
2022-11-15T07:33:46.246Z,73.90
2022-11-15T07:36:32.702Z,74.40
2022-11-15T07:39:21.500Z,74.20
2022-11-15T07:42:25.252Z,73.90
2022-11-15T07:45:12.324Z,73.20
2022-11-15T07:47:59.019Z,72.80
2022-11-15T07:50:46.730Z,72.60
2022-11-15T07:53:33.705Z,72.70
2022-11-15T07:56:21.628Z,72.90
2022-11-15T07:59:07.805Z,73.10
2022-11-15T08:01:54.437Z,73.60
2022-11-15T08:04:41.148Z,73.70
2022-11-15T08:07:30.474Z,73.60
2022-11-15T08:10:19.931Z,73.50
2022-11-15T08:13:07.711Z,73.60
2022-11-15T08:15:57.772Z,73.60
2022-11-15T08:18:44.573Z,74.10
2022-11-15T08:21:30.903Z,74.00
2022-11-15T08:24:18.744Z,73.50
2022-11-15T08:27:05.182Z,73.40
2022-11-15T08:29:53.389Z,73.20
2022-11-15T08:32:43.246Z,73.70
2022-11-15T08:35:29.877Z,73.60
2022-11-15T08:38:16.045Z,73.40
2022-11-15T08:41:04.949Z,73.40
2022-11-15T08:43:51.480Z,73.60
2022-11-15T08:46:38.228Z,73.70
2022-11-15T08:49:24.745Z,74.10
2022-11-15T08:52:11.071Z,74.00
2022-11-15T08:54:57.283Z,73.50
2022-11-15T08:57:44.824Z,73.30
2022-11-15T09:00:31.501Z,73.40
2022-11-15T09:03:18.129Z,73.40
2022-11-15T09:06:04.404Z,73.60
2022-11-15T09:08:50.617Z,73.80
2022-11-15T09:11:36.978Z,73.80
2022-11-15T09:14:24.797Z,73.90
2022-11-15T09:17:11.564Z,73.90
2022-11-15T09:19:58.001Z,74.00
2022-11-15T09:22:44.213Z,74.60
2022-11-15T09:25:31.386Z,73.80
2022-11-15T09:28:18.035Z,73.20
2022-11-15T09:31:07.140Z,72.50
2022-11-15T09:33:53.715Z,71.60
2022-11-15T09:36:40.089Z,70.80
2022-11-15T09:39:27.968Z,70.20
2022-11-15T09:42:27.948Z,69.70
2022-11-15T09:45:18.836Z,69.50
2022-11-15T09:48:27.421Z,69.10
2022-11-15T09:51:27.711Z,69.10
2022-11-15T09:56:47.976Z,69.90
2022-11-15T09:59:34.853Z,70.70
2022-11-15T10:02:06.078Z,71.10
2022-11-15T10:04:35.376Z,71.20
2022-11-15T10:07:04.874Z,71.50
2022-11-15T10:09:36.004Z,71.70
2022-11-15T10:12:03.997Z,71.90
2022-11-15T10:14:32.272Z,72.70
2022-11-15T10:17:28.615Z,72.90
2022-11-15T10:20:06.480Z,72.70
2022-11-15T10:22:38.380Z,72.80
2022-11-15T10:25:16.999Z,72.80
2022-11-15T10:27:45.320Z,73.00
2022-11-15T10:30:15.083Z,73.90
2022-11-15T10:32:43.833Z,73.80
2022-11-15T10:35:24.581Z,73.40
2022-11-15T10:37:52.442Z,73.00
2022-11-15T10:40:22.203Z,72.50
2022-11-15T10:42:50.245Z,72.30
2022-11-15T10:45:29.854Z,72.20
2022-11-15T10:48:20.667Z,72.30
2022-11-15T10:50:50.298Z,72.40
2022-11-15T10:53:21.461Z,72.90
2022-11-15T10:55:50.181Z,73.30
2022-11-15T10:58:23.988Z,73.30
2022-11-15T11:00:52.174Z,73.30
2022-11-15T11:03:31.472Z,73.30
2022-11-15T11:06:08.468Z,73.50
2022-11-15T11:08:36.340Z,74.90
2022-11-15T11:11:06.704Z,74.00
2022-11-15T11:13:35.778Z,73.80
2022-11-15T11:16:21.698Z,73.60
2022-11-15T11:18:53.901Z,73.30
2022-11-15T11:21:31.932Z,73.70
2022-11-15T11:24:05.276Z,73.80
2022-11-15T11:26:43.004Z,73.70
2022-11-15T11:29:21.152Z,73.50
2022-11-15T11:31:51.922Z,73.50
2022-11-15T11:34:27.895Z,73.60
2022-11-15T11:37:00.511Z,74.40
2022-11-15T11:39:32.199Z,74.10
2022-11-15T11:42:04.902Z,74.00
2022-11-15T11:44:39.665Z,73.90
2022-11-15T11:47:11.200Z,74.00
2022-11-15T11:49:42.937Z,74.50
2022-11-15T11:52:14.159Z,74.70
2022-11-15T11:54:48.356Z,74.30
2022-11-15T11:57:19.490Z,73.90
2022-11-15T11:59:50.831Z,73.40
2022-11-15T12:02:20.463Z,73.10
2022-11-15T12:04:51.123Z,73.00
2022-11-15T12:07:23.686Z,72.90
2022-11-15T12:09:55.697Z,73.10
2022-11-15T12:12:27.192Z,73.20
2022-11-15T12:14:57.080Z,73.70
2022-11-15T12:17:26.933Z,74.10
2022-11-15T12:19:54.857Z,73.90
2022-11-15T12:22:25.852Z,73.80
2022-11-15T12:24:56.377Z,73.80
2022-11-15T12:27:33.543Z,73.90
2022-11-15T12:30:03.635Z,74.40
2022-11-15T12:32:33.749Z,74.50
2022-11-15T12:35:02.311Z,74.20
2022-11-15T12:37:49.418Z,74.10
2022-11-15T12:40:28.537Z,74.10
2022-11-15T12:43:02.087Z,74.20
2022-11-15T12:45:31.058Z,74.80
2022-11-15T12:48:23.977Z,74.20
2022-11-15T12:50:55.433Z,73.70
2022-11-15T12:53:31.893Z,73.30
2022-11-15T12:56:28.501Z,73.10
2022-11-15T12:58:57.779Z,72.90
2022-11-15T13:02:01.903Z,72.90
2022-11-15T13:04:31.363Z,73.00
2022-11-15T13:07:00.458Z,73.30
2022-11-15T13:09:55.413Z,73.60
2022-11-15T13:12:51.908Z,74.10
2022-11-15T13:15:43.044Z,73.90
2022-11-15T13:18:36.551Z,73.80
2022-11-15T13:21:27.095Z,73.90
2022-11-15T13:23:56.496Z,74.10
2022-11-15T13:26:25.725Z,74.60
2022-11-15T13:28:55.735Z,74.40
2022-11-15T13:31:28.997Z,74.20
2022-11-15T13:34:00.259Z,74.10
2022-11-15T13:36:30.316Z,74.20
2022-11-15T13:39:00.168Z,74.60
2022-11-15T13:41:30.003Z,74.80
2022-11-15T13:43:58.422Z,74.50
2022-11-15T13:46:26.979Z,74.00
2022-11-15T13:48:56.509Z,73.60
2022-11-15T13:51:30.396Z,73.20
2022-11-15T13:54:00.501Z,73.00
2022-11-15T13:56:29.975Z,72.90
2022-11-15T13:58:57.845Z,73.20
2022-11-15T14:01:25.772Z,73.30
2022-11-15T14:03:56.568Z,73.50
2022-11-15T14:06:25.262Z,74.10
2022-11-15T14:09:37.828Z,74.10
2022-11-15T14:12:38.523Z,73.90
2022-11-15T14:15:26.786Z,73.90
2022-11-15T14:17:54.672Z,74.10
2022-11-15T14:20:33.565Z,74.60
2022-11-15T14:23:02.585Z,74.40
2022-11-15T14:25:30.590Z,74.30
2022-11-15T14:28:18.848Z,74.30
2022-11-15T14:30:51.022Z,74.20
2022-11-15T14:33:23.951Z,74.40
2022-11-15T14:35:51.998Z,74.90
2022-11-15T14:38:19.903Z,74.80
2022-11-15T14:40:47.767Z,74.40
2022-11-15T14:43:15.800Z,73.80
2022-11-15T14:45:43.808Z,73.40
2022-11-15T14:48:13.305Z,73.20
2022-11-15T14:50:41.574Z,73.10
2022-11-15T14:53:12.974Z,73.20
2022-11-15T14:55:43.538Z,73.30
2022-11-15T14:58:11.601Z,73.50
2022-11-15T15:00:40.968Z,74.10
2022-11-15T15:03:09.053Z,74.10
2022-11-15T15:05:39.272Z,74.00
2022-11-15T15:08:07.428Z,74.00
2022-11-15T15:10:41.410Z,74.00
2022-11-15T15:13:18.778Z,74.10
2022-11-15T15:15:49.121Z,74.60
2022-11-15T15:18:23.342Z,74.50
2022-11-15T15:20:58.278Z,74.30
2022-11-15T15:23:31.603Z,74.30
2022-11-15T15:26:00.345Z,74.30
2022-11-15T15:28:33.128Z,74.30
2022-11-15T15:31:05.867Z,74.80
2022-11-15T15:33:42.923Z,74.70
2022-11-15T15:36:14.678Z,74.20
2022-11-15T15:38:43.000Z,73.70
2022-11-15T15:41:12.496Z,73.60
2022-11-15T15:43:40.366Z,73.50
2022-11-15T15:46:10.665Z,73.80
2022-11-15T15:48:40.314Z,73.70
2022-11-15T15:51:14.328Z,73.60
2022-11-15T15:53:49.038Z,73.70
2022-11-15T15:56:17.164Z,73.70
2022-11-15T15:58:45.087Z,73.90
2022-11-15T16:01:13.036Z,75.10
2022-11-15T16:03:40.983Z,74.30
2022-11-15T16:06:36.611Z,74.20
2022-11-15T16:09:21.337Z,74.20
2022-11-15T16:11:49.441Z,74.30
2022-11-15T16:14:17.297Z,74.60
2022-11-15T16:16:45.347Z,74.80
2022-11-15T16:19:13.940Z,74.50
2022-11-15T16:21:41.812Z,74.40
2022-11-15T16:24:11.131Z,74.30
2022-11-15T16:26:39.036Z,74.30
2022-11-15T16:29:07.836Z,74.70
2022-11-15T16:31:38.641Z,74.80
2022-11-15T16:34:07.205Z,74.60
2022-11-15T16:36:35.735Z,74.00
2022-11-15T16:39:05.244Z,73.40
2022-11-15T16:41:34.531Z,73.20
2022-11-15T16:44:02.446Z,72.90
2022-11-15T16:46:30.403Z,72.90
2022-11-15T16:48:58.747Z,73.00
2022-11-15T16:51:26.633Z,73.20
2022-11-15T16:53:54.543Z,73.50
2022-11-15T16:56:25.100Z,74.10
2022-11-15T16:58:54.678Z,74.00
2022-11-15T17:01:24.637Z,73.90
2022-11-15T17:03:52.629Z,73.90
2022-11-15T17:06:23.564Z,74.00
2022-11-15T17:08:51.464Z,74.30
2022-11-15T17:11:20.365Z,74.60
2022-11-15T17:13:48.944Z,74.40
2022-11-15T17:16:19.270Z,74.20
2022-11-15T17:18:50.672Z,74.20
2022-11-15T17:21:19.521Z,74.20
2022-11-15T17:23:47.564Z,74.60
2022-11-15T17:26:35.016Z,74.80
2022-11-15T17:29:07.648Z,74.60
2022-11-15T17:31:37.078Z,74.00
2022-11-15T17:34:05.291Z,73.70
2022-11-15T17:36:33.303Z,73.50
2022-11-15T17:39:01.175Z,73.90
2022-11-15T17:41:29.113Z,74.00
2022-11-15T17:43:58.847Z,73.80
2022-11-15T17:46:26.858Z,73.80
2022-11-15T17:48:56.422Z,73.80
2022-11-15T17:51:24.763Z,73.90
2022-11-15T17:53:53.281Z,74.40
2022-11-15T17:56:21.805Z,74.40
2022-11-15T17:58:49.834Z,74.20
2022-11-15T18:01:18.881Z,74.10
2022-11-15T18:03:47.077Z,74.20
2022-11-15T18:06:16.328Z,74.40
2022-11-15T18:08:45.420Z,74.90
2022-11-15T18:11:14.062Z,74.70
2022-11-15T18:13:43.672Z,74.30
2022-11-15T18:16:13.712Z,73.80
2022-11-15T18:18:41.717Z,73.40
2022-11-15T18:21:11.515Z,73.20
2022-11-15T18:23:40.899Z,73.00
2022-11-15T18:26:09.227Z,73.20
2022-11-15T18:28:37.861Z,73.30
2022-11-15T18:31:13.195Z,73.40
2022-11-15T18:33:41.774Z,74.00
2022-11-15T18:36:11.482Z,74.10
2022-11-15T18:38:40.847Z,73.90
2022-11-15T18:41:10.140Z,73.90
2022-11-15T18:43:38.045Z,74.00
2022-11-15T18:46:06.609Z,74.10
2022-11-15T18:48:36.863Z,74.50
2022-11-15T18:53:55.504Z,74.30
2022-11-15T18:56:24.403Z,74.30
2022-11-15T18:58:53.401Z,75.20
2022-11-15T19:01:22.085Z,74.50
2022-11-15T19:03:51.354Z,74.80
2022-11-15T19:06:20.168Z,74.80
2022-11-15T19:08:50.068Z,74.30
2022-11-15T19:11:23.868Z,73.90
2022-11-15T19:13:54.180Z,73.60
2022-11-15T19:16:22.065Z,73.50
2022-11-15T19:18:52.161Z,73.90
2022-11-15T19:21:20.114Z,73.80
2022-11-15T19:23:47.984Z,73.60
2022-11-15T19:26:16.364Z,73.60
2022-11-15T19:28:45.721Z,73.80
2022-11-15T19:31:14.410Z,73.90
2022-11-15T19:33:43.053Z,74.40
2022-11-15T19:36:12.928Z,74.40
2022-11-15T19:38:41.037Z,74.20
2022-11-15T19:41:10.998Z,74.10
2022-11-15T19:43:39.108Z,74.10
2022-11-15T19:46:08.694Z,74.40
2022-11-15T19:48:36.663Z,74.80
2022-11-15T19:51:05.212Z,74.70
2022-11-15T19:53:35.180Z,74.20
2022-11-15T19:56:04.976Z,74.00
2022-11-15T19:58:33.858Z,73.70
2022-11-15T20:01:03.231Z,73.80
2022-11-15T20:03:33.480Z,74.20
2022-11-15T20:06:03.010Z,74.10
2022-11-15T20:08:31.175Z,73.90
2022-11-15T20:10:59.829Z,73.80
2022-11-15T20:13:28.138Z,73.90
2022-11-15T20:15:56.573Z,74.20
2022-11-15T20:18:24.976Z,74.50
2022-11-15T20:20:55.184Z,74.50
2022-11-15T20:23:23.277Z,74.10
2022-11-15T20:25:51.214Z,73.80
2022-11-15T20:28:20.319Z,74.30
2022-11-15T20:30:48.464Z,73.90
2022-11-15T20:33:17.126Z,74.20
2022-11-15T20:35:45.308Z,74.10
2022-11-15T20:38:14.563Z,74.00
2022-11-15T20:40:42.440Z,74.00
2022-11-15T20:43:11.650Z,74.00
2022-11-15T20:45:39.815Z,74.30
2022-11-15T20:48:08.129Z,74.50
2022-11-15T20:50:42.699Z,74.40
2022-11-15T20:53:11.475Z,74.20
2022-11-15T20:55:44.123Z,74.30
2022-11-15T20:58:12.095Z,74.20
2022-11-15T21:00:41.956Z,74.70
2022-11-15T21:03:10.160Z,74.70
2022-11-15T21:05:39.132Z,74.50
2022-11-15T21:08:07.131Z,74.00
2022-11-15T21:10:52.448Z,73.40
2022-11-15T21:13:21.689Z,73.10
2022-11-15T21:15:49.543Z,73.00
2022-11-15T21:18:17.403Z,73.20
2022-11-15T21:20:45.436Z,73.20
2022-11-15T21:23:13.671Z,73.50
2022-11-15T21:25:41.574Z,73.90
2022-11-15T21:28:09.601Z,74.30
2022-11-15T21:30:38.951Z,74.10
2022-11-15T21:33:07.097Z,73.90
2022-11-15T21:35:35.612Z,74.00
2022-11-15T21:38:03.483Z,74.10
2022-11-15T21:40:31.324Z,74.50
2022-11-15T21:42:59.472Z,74.60
2022-11-15T21:45:27.348Z,74.50
2022-11-15T21:47:56.694Z,74.20
2022-11-15T21:50:24.592Z,74.30
2022-11-15T21:52:52.751Z,74.40
2022-11-15T21:55:20.658Z,74.80
2022-11-15T21:57:48.535Z,74.80
2022-11-15T22:00:44.041Z,74.40
2022-11-15T22:03:14.315Z,73.90
2022-11-15T22:05:45.439Z,73.70
2022-11-15T22:08:13.359Z,73.50
2022-11-15T22:10:41.234Z,73.90
2022-11-15T22:13:09.129Z,73.90
2022-11-15T22:15:36.997Z,73.80
2022-11-15T22:18:05.231Z,73.70
2022-11-15T22:20:44.580Z,73.70
2022-11-15T22:23:13.499Z,73.90
2022-11-15T22:25:41.813Z,74.20
2022-11-15T22:28:10.196Z,74.40
2022-11-15T22:30:38.205Z,74.30
2022-11-15T22:33:06.243Z,74.20
2022-11-15T22:35:36.777Z,74.20
2022-11-15T22:38:05.078Z,74.30
2022-11-15T22:40:33.197Z,74.70
2022-11-15T22:43:01.239Z,74.80
2022-11-15T22:45:29.344Z,74.50
2022-11-15T22:47:57.449Z,73.90
2022-11-15T22:50:25.525Z,73.50
2022-11-15T22:52:54.918Z,73.30
2022-11-15T22:55:22.925Z,73.10
2022-11-15T22:57:51.289Z,73.20
2022-11-15T23:00:19.664Z,73.40
2022-11-15T23:02:50.632Z,73.50
2022-11-15T23:05:21.303Z,74.10
2022-11-15T23:07:49.374Z,74.20
2022-11-15T23:10:36.792Z,74.10
2022-11-15T23:13:17.310Z,74.10
2022-11-15T23:16:03.248Z,74.10
2022-11-15T23:18:34.008Z,74.30
2022-11-15T23:21:09.288Z,74.70
2022-11-15T23:23:36.438Z,74.60
2022-11-15T23:26:05.900Z,74.40
2022-11-15T23:28:34.525Z,74.30
2022-11-15T23:31:23.880Z,74.40
2022-11-15T23:34:00.852Z,74.50
2022-11-15T23:36:29.330Z,74.90
2022-11-15T23:38:57.344Z,74.70
2022-11-15T23:41:27.959Z,74.30
2022-11-15T23:43:56.024Z,73.80
2022-11-15T23:46:24.076Z,73.20
2022-11-15T23:48:52.074Z,73.10
2022-11-15T23:51:20.083Z,73.00
2022-11-15T23:53:48.128Z,73.10
2022-11-15T23:56:17.077Z,73.20
2022-11-15T23:58:46.612Z,73.50
